Terminal Aerodrome Forecast
Issued by NWS

Home | Current Version | Previous Version | Text Only | Print | Product List | Glossary On
Versions: 1 2 3 4 5 6 7 8 9 10 11 12 13 14 15 16
000
FTUS41 KILN 271307 AAA
TAFLUK
TAF AMD
KLUK 271307Z 2713/2812 25008KT P6SM FEW020 BKN050 BKN060
     FM271500 24008KT P6SM BKN035
     FM272100 28008KT P6SM VCSH BKN040
     FM280000 32004KT P6SM BKN080
     FM280600 16004KT P6SM VCSH OVC050
     FM280900 17008KT P6SM -SHRA OVC025=

USA.gov is the U.S. government's official web portal to all federal, state and local government web resources and services.